createdAt,value
2019-05-10T00:04:42.296Z,71.40
2019-05-10T00:11:49.304Z,72.00
2019-05-10T00:18:33.887Z,72.50
2019-05-10T00:25:19.547Z,74.10
2019-05-10T00:32:04.634Z,74.90
2019-05-10T00:38:49.656Z,75.10
2019-05-10T00:45:34.643Z,75.10
2019-05-10T00:52:19.506Z,75.00
2019-05-10T00:59:04.529Z,75.10
2019-05-10T01:05:49.523Z,75.60
2019-05-10T01:12:34.376Z,76.40
2019-05-10T01:19:19.478Z,76.40
2019-05-10T01:26:04.534Z,75.80
2019-05-10T01:32:50.639Z,75.90
2019-05-10T01:39:35.570Z,77.20
2019-05-10T01:46:20.432Z,78.90
2019-05-10T01:53:05.378Z,78.30
2019-05-10T01:59:51.099Z,78.00
2019-05-10T02:06:36.024Z,78.20
2019-05-10T02:13:20.947Z,78.50
2019-05-10T02:20:06.536Z,80.00
2019-05-10T02:26:51.394Z,81.80
2019-05-10T02:33:36.259Z,82.10
2019-05-10T02:40:21.247Z,81.80
2019-05-10T02:47:06.161Z,83.50
2019-05-10T02:53:51.253Z,85.30
2019-05-10T03:00:39.259Z,86.30
2019-05-10T03:07:44.392Z,86.70
2019-05-10T03:14:32.380Z,86.50
2019-05-10T03:21:18.571Z,85.50
2019-05-10T03:28:03.667Z,86.20
2019-05-10T03:34:48.650Z,88.30
2019-05-10T03:41:33.594Z,90.10
2019-05-10T03:48:18.617Z,90.00
2019-05-10T03:55:04.487Z,87.30
2019-05-10T04:01:49.407Z,84.90
2019-05-10T04:08:34.283Z,82.50
2019-05-10T04:15:19.691Z,80.70
2019-05-10T04:22:04.711Z,79.30
2019-05-10T04:28:49.916Z,78.20
2019-05-10T04:35:34.824Z,77.30
2019-05-10T04:42:19.825Z,76.80
2019-05-10T04:49:04.751Z,76.40
2019-05-10T04:55:51.394Z,74.70
2019-05-10T05:02:36.467Z,75.10
2019-05-10T05:09:21.588Z,74.20
2019-05-10T05:16:06.519Z,72.50
2019-05-10T05:22:51.422Z,70.80
2019-05-10T05:29:36.393Z,67.30
2019-05-10T05:36:21.675Z,67.00
2019-05-10T05:43:08.105Z,67.60
2019-05-10T05:49:53.191Z,47.30
2019-05-10T05:56:38.177Z,37.20
2019-05-10T06:03:29.550Z,36.20
2019-05-10T06:10:17.298Z,46.00
2019-05-10T06:16:58.290Z,38.60
2019-05-10T06:23:43.453Z,30.80
2019-05-10T06:30:28.469Z,27.80
2019-05-10T06:37:13.988Z,26.50
2019-05-10T06:43:59.495Z,27.90
2019-05-10T06:50:47.713Z,30.00
2019-05-10T06:57:33.963Z,34.10
2019-05-10T07:04:18.832Z,32.70
2019-05-10T07:11:03.836Z,37.00
2019-05-10T07:17:48.847Z,37.80
2019-05-10T07:24:33.912Z,39.40
2019-05-10T07:31:23.342Z,43.20
2019-05-10T07:38:05.552Z,44.60
2019-05-10T07:44:50.478Z,44.00
2019-05-10T07:51:35.375Z,42.50
2019-05-10T07:58:20.297Z,41.60
2019-05-10T08:05:10.825Z,41.20
2019-05-10T08:11:59.294Z,40.40
2019-05-10T08:18:42.401Z,39.50
2019-05-10T08:25:29.030Z,41.90
2019-05-10T08:32:13.564Z,33.40
2019-05-10T08:39:07.075Z,29.40
2019-05-10T08:45:49.420Z,31.40
2019-05-10T08:52:33.972Z,34.00
2019-05-10T08:59:23.739Z,37.50
2019-05-10T09:06:11.984Z,33.90
2019-05-10T09:12:57.903Z,30.00
2019-05-10T09:19:43.417Z,26.20
2019-05-10T09:26:26.044Z,27.60
2019-05-10T09:33:14.333Z,29.30
2019-05-10T09:40:05.839Z,29.90
2019-05-10T09:46:44.384Z,28.40
2019-05-10T09:53:30.409Z,26.80
2019-05-10T10:00:17.489Z,26.10
2019-05-10T10:07:02.824Z,28.40
2019-05-10T10:13:50.226Z,29.80
2019-05-10T10:20:40.650Z,29.70
2019-05-10T10:27:28.041Z,30.10
2019-05-10T10:34:09.167Z,30.40
2019-05-10T10:40:54.052Z,30.20
2019-05-10T10:47:39.242Z,29.60
2019-05-10T10:54:28.616Z,29.60
2019-05-10T11:01:21.288Z,29.90
2019-05-10T11:07:57.543Z,32.70
2019-05-10T11:14:45.293Z,32.40
2019-05-10T11:21:31.255Z,33.20
2019-05-10T11:28:16.495Z,33.90
2019-05-10T11:35:05.102Z,34.20
2019-05-10T11:41:52.973Z,34.60
2019-05-10T11:48:37.115Z,33.20
2019-05-10T11:55:24.579Z,32.30
2019-05-10T12:02:10.660Z,32.20
2019-05-10T12:09:01.055Z,30.00
2019-05-10T12:15:43.738Z,29.90
2019-05-10T12:22:38.307Z,30.10
2019-05-10T12:29:17.284Z,37.60
2019-05-10T12:36:02.355Z,43.50
2019-05-10T12:42:47.447Z,45.50
2019-05-10T12:49:35.998Z,44.40
2019-05-10T12:56:19.290Z,41.60
2019-05-10T13:03:12.654Z,37.30
2019-05-10T13:10:02.117Z,37.00
2019-05-10T13:16:37.530Z,35.40
2019-05-10T13:23:22.399Z,35.70
2019-05-10T13:30:08.190Z,36.20
2019-05-10T13:36:53.067Z,36.20
2019-05-10T13:43:37.931Z,36.80
2019-05-10T13:50:23.238Z,47.20
2019-05-10T13:57:09.675Z,58.70
2019-05-10T14:04:01.203Z,64.20
2019-05-10T14:10:41.844Z,62.50
2019-05-10T14:17:26.795Z,64.30
2019-05-10T14:24:15.270Z,61.30
2019-05-10T14:30:59.283Z,58.40
2019-05-10T14:37:47.698Z,51.20
2019-05-10T14:44:31.101Z,55.20
2019-05-10T14:51:15.994Z,53.60
2019-05-10T14:58:00.876Z,49.20
2019-05-10T15:04:47.063Z,48.60
2019-05-10T15:11:33.247Z,50.50
2019-05-10T15:18:18.224Z,49.90
2019-05-10T15:25:03.462Z,48.20
2019-05-10T15:31:48.429Z,49.60
2019-05-10T15:38:33.490Z,47.00
2019-05-10T15:45:19.603Z,47.30
2019-05-10T15:52:16.885Z,48.10
2019-05-10T15:58:51.684Z,49.40
2019-05-10T16:05:59.879Z,49.20
2019-05-10T16:12:37.925Z,49.90
2019-05-10T16:19:21.819Z,51.00
2019-05-10T16:26:06.839Z,50.10
2019-05-10T16:32:51.703Z,50.30
2019-05-10T16:39:36.635Z,49.40
2019-05-10T16:46:21.571Z,49.20
2019-05-10T16:53:08.171Z,48.40
2019-05-10T16:59:53.144Z,48.60
2019-05-10T17:06:40.404Z,47.60
2019-05-10T17:13:24.691Z,47.40
2019-05-10T17:20:13.915Z,47.30
2019-05-10T17:26:56.687Z,47.30
2019-05-10T17:33:42.567Z,48.30
2019-05-10T17:40:28.269Z,49.00
2019-05-10T17:47:13.135Z,50.50
2019-05-10T17:54:01.328Z,50.10
2019-05-10T18:00:45.217Z,52.10
2019-05-10T18:07:31.089Z,49.30
2019-05-10T18:14:18.069Z,51.40
2019-05-10T18:21:02.647Z,53.20
2019-05-10T18:27:47.810Z,54.40
2019-05-10T18:34:35.156Z,56.00
2019-05-10T18:41:19.300Z,57.80
2019-05-10T18:48:04.791Z,58.10
2019-05-10T18:54:49.716Z,57.80
2019-05-10T19:01:38.641Z,57.00
2019-05-10T19:08:21.172Z,56.40
2019-05-10T19:15:15.378Z,58.70
2019-05-10T19:21:56.897Z,58.90
2019-05-10T19:28:41.925Z,58.50
2019-05-10T19:35:29.980Z,58.00
2019-05-10T19:42:13.645Z,58.30
2019-05-10T19:48:58.513Z,58.30
2019-05-10T19:55:44.080Z,60.30
2019-05-10T20:02:29.214Z,61.50
2019-05-10T20:09:14.249Z,62.50
2019-05-10T20:16:01.398Z,61.30
2019-05-10T20:22:46.101Z,61.50
2019-05-10T20:29:31.047Z,61.50
2019-05-10T20:36:16.061Z,61.80
2019-05-10T20:43:01.029Z,62.20
2019-05-10T20:49:46.068Z,62.80
2019-05-10T20:56:31.008Z,64.30
2019-05-10T21:03:16.110Z,64.60
2019-05-10T21:10:01.119Z,64.80
2019-05-10T21:16:47.205Z,65.40
2019-05-10T21:23:32.145Z,65.80
2019-05-10T21:30:17.423Z,65.40
2019-05-10T21:37:02.371Z,66.40
2019-05-10T21:43:47.324Z,66.20
2019-05-10T21:50:34.671Z,66.90
2019-05-10T21:57:19.600Z,67.00
2019-05-10T22:10:59.413Z,69.40
2019-05-10T22:17:44.376Z,69.20
2019-05-10T22:24:29.253Z,69.40
2019-05-10T22:31:14.344Z,69.20
2019-05-10T22:37:59.553Z,69.40
2019-05-10T22:44:44.460Z,69.70
2019-05-10T22:51:29.389Z,72.20
2019-05-10T22:58:14.596Z,74.70
2019-05-10T23:04:59.466Z,78.10
2019-05-10T23:11:44.428Z,79.90
2019-05-10T23:18:29.435Z,79.70
2019-05-10T23:25:14.828Z,83.10
2019-05-10T23:31:59.767Z,82.40
2019-05-10T23:38:44.793Z,83.80
2019-05-10T23:45:29.652Z,84.40
2019-05-10T23:52:14.657Z,83.50
2019-05-10T23:58:59.689Z,83.70
